Time;durP1;ratioP1;P1;durP2;ratioP2;P2;SDS_P1;SDS_P2;PMS_P1;PMS_P2;Temp;Humidity;BMP_temperature;BMP_pressure;BME280_temperature;BME280_humidity;BME280_pressure;Samples;Min_cycle;Max_cycle;Signal;HPM_P1;HPM_P2
2023/08/16 00:00:32;;;;;;;9.70;5.97;;;;;;;29.95;44.49;100121.13;4481013;32;33273;-78
2023/08/16 00:03:00;;;;;;;9.07;5.97;;;;;;;29.46;45.62;100136.72;4474512;32;34652;-78
2023/08/16 00:05:29;;;;;;;8.80;5.85;;;;;;;29.13;46.60;100128.72;4464996;32;33245;-78
2023/08/16 00:07:56;;;;;;;11.97;6.20;;;;;;;29.27;46.26;100124.81;4480943;32;33192;-78
2023/08/16 00:10:24;;;;;;;9.48;6.03;;;;;;;29.04;47.12;100134.25;4481117;32;33552;-78
2023/08/16 00:12:51;;;;;;;9.98;5.57;;;;;;;29.43;45.95;100128.78;4469254;32;33719;-78
2023/08/16 00:15:19;;;;;;;9.93;5.95;;;;;;;29.72;44.99;100125.31;4481147;32;33711;-78
2023/08/16 00:17:47;;;;;;;10.18;5.68;;;;;;;30.09;44.09;100116.22;4480484;31;33510;-78
2023/08/16 00:20:17;;;;;;;7.87;5.62;;;;;;;29.69;44.88;100121.84;4473439;32;33784;-78
2023/08/16 00:22:44;;;;;;;8.80;5.90;;;;;;;30.14;43.74;100124.97;4473675;32;33276;-78
2023/08/16 00:25:12;;;;;;;10.07;5.90;;;;;;;28.89;46.61;100123.97;4480420;32;34091;-78
2023/08/16 00:27:41;;;;;;;8.20;6.07;;;;;;;28.41;48.29;100128.66;4476602;32;33445;-78
2023/08/16 00:30:09;;;;;;;10.80;6.68;;;;;;;28.35;48.46;100122.59;4476216;32;33414;-78
2023/08/16 00:32:37;;;;;;;8.10;6.85;;;;;;;28.49;48.12;100116.94;4476631;32;34555;-78
2023/08/16 00:35:05;;;;;;;7.82;5.93;;;;;;;28.33;48.71;100124.41;4477677;32;34239;-78
2023/08/16 00:37:33;;;;;;;9.85;6.28;;;;;;;28.41;48.55;100122.44;4478635;32;34005;-78
2023/08/16 00:40:01;;;;;;;9.90;6.23;;;;;;;28.28;48.94;100120.97;4480948;32;32647;-78
2023/08/16 00:42:30;;;;;;;10.35;6.25;;;;;;;28.27;48.93;100120.09;4472162;32;33810;-78
2023/08/16 00:44:57;;;;;;;10.93;6.40;;;;;;;28.42;48.24;100114.41;4475697;32;34559;-78
2023/08/16 00:47:25;;;;;;;9.05;6.20;;;;;;;28.61;47.91;100120.22;4469995;32;33445;-78
2023/08/16 00:49:53;;;;;;;9.25;6.20;;;;;;;28.30;48.71;100112.06;4479329;32;33777;-78
2023/08/16 00:52:21;;;;;;;8.82;6.05;;;;;;;28.83;47.26;100107.22;4480750;32;33992;-78
2023/08/16 00:54:48;;;;;;;9.10;6.10;;;;;;;28.44;48.26;100103.72;4475723;32;33604;-78
2023/08/16 00:57:16;;;;;;;9.60;6.20;;;;;;;28.47;48.13;100100.09;4480521;32;33163;-78
2023/08/16 00:59:44;;;;;;;8.57;6.30;;;;;;;28.41;48.38;100099.34;4481933;32;34269;-78
2023/08/16 01:02:13;;;;;;;9.80;6.05;;;;;;;29.13;46.57;100107.38;4482980;32;34489;-78
2023/08/16 01:04:42;;;;;;;8.73;5.97;;;;;;;29.67;45.03;100096.97;4480196;32;33538;-78
2023/08/16 01:07:09;;;;;;;9.05;6.00;;;;;;;29.45;45.15;100086.94;4481703;32;33797;-78
2023/08/16 01:09:37;;;;;;;7.90;5.82;;;;;;;29.38;45.45;100088.00;4469373;32;33205;-78
2023/08/16 01:12:32;;;;;;;9.85;6.18;;;;;;;29.67;44.67;100087.19;4481067;32;33694;-78
2023/08/16 01:15:20;;;;;;;8.35;6.22;;;;;;;29.62;44.58;100085.59;4459644;32;33925;-78
2023/08/16 01:17:50;;;;;;;8.80;5.68;;;;;;;29.41;44.98;100086.12;4467647;32;32431;-78
2023/08/16 01:20:18;;;;;;;9.23;6.00;;;;;;;29.25;45.39;100081.28;4479346;32;33455;-78
2023/08/16 01:22:52;;;;;;;8.57;5.80;;;;;;;29.46;44.80;100082.47;4474948;32;33613;-78
2023/08/16 01:25:31;;;;;;;8.48;5.87;;;;;;;29.19;45.23;100091.22;4482674;32;33134;-78
2023/08/16 01:27:59;;;;;;;10.05;6.18;;;;;;;29.11;45.67;100093.19;4479130;32;33409;-78
2023/08/16 01:30:28;;;;;;;9.23;5.93;;;;;;;28.84;46.13;100089.47;4483467;32;33406;-78
2023/08/16 01:33:05;;;;;;;10.87;5.83;;;;;;;28.70;46.49;100091.56;4470253;32;33828;-78
2023/08/16 01:35:34;;;;;;;9.35;6.35;;;;;;;28.49;47.35;100090.28;4477827;32;32658;-77
2023/08/16 01:38:03;;;;;;;9.57;6.50;;;;;;;28.17;47.97;100082.16;4482336;32;33338;-77
2023/08/16 01:40:37;;;;;;;8.57;6.30;;;;;;;27.37;50.62;100088.25;4479557;32;33501;-77
2023/08/16 01:43:10;;;;;;;9.95;6.75;;;;;;;26.96;51.77;100095.19;4481818;32;33070;-77
2023/08/16 01:45:38;;;;;;;10.27;6.90;;;;;;;26.98;52.04;100088.06;4464075;32;35742;-78
2023/08/16 01:48:06;;;;;;;8.70;6.23;;;;;;;26.83;52.40;100087.47;4481823;32;33113;-78
2023/08/16 01:50:34;;;;;;;8.70;6.70;;;;;;;27.22;51.46;100095.59;4468775;32;33483;-78
2023/08/16 01:53:01;;;;;;;11.25;6.68;;;;;;;26.75;52.47;100089.34;4463874;32;33149;-78
2023/08/16 01:55:29;;;;;;;10.30;6.65;;;;;;;27.17;51.51;100092.16;4480069;32;33833;-78
2023/08/16 01:57:57;;;;;;;8.68;6.45;;;;;;;27.25;51.33;100084.97;4479488;32;33362;-78
2023/08/16 02:00:24;;;;;;;9.27;6.25;;;;;;;27.21;51.39;100091.19;4475290;32;33587;-78
2023/08/16 02:02:52;;;;;;;8.65;6.28;;;;;;;27.18;51.73;100087.72;4481153;32;33166;-78
2023/08/16 02:05:20;;;;;;;9.00;6.35;;;;;;;26.97;52.34;100089.00;4480795;32;34591;-78
2023/08/16 02:07:47;;;;;;;12.63;6.57;;;;;;;27.28;51.55;100088.47;4478754;32;33805;-78
2023/08/16 02:10:15;;;;;;;8.07;6.20;;;;;;;27.48;50.71;100086.25;4481508;32;34403;-78
2023/08/16 02:12:43;;;;;;;9.15;5.90;;;;;;;27.18;51.68;100087.72;4481347;32;33844;-78
2023/08/16 02:15:11;;;;;;;10.02;6.00;;;;;;;27.08;51.81;100087.00;4482190;32;33529;-78
2023/08/16 02:17:38;;;;;;;9.07;6.10;;;;;;;27.53;50.56;100073.75;4483064;32;33363;-78
2023/08/16 02:20:07;;;;;;;8.60;5.90;;;;;;;27.21;51.31;100071.69;4464826;32;34629;-78
2023/08/16 02:22:35;;;;;;;9.38;6.18;;;;;;;26.84;52.23;100083.88;4462040;32;33689;-78
2023/08/16 02:25:11;;;;;;;8.85;6.43;;;;;;;27.10;51.62;100069.25;4476563;32;34053;-78
2023/08/16 02:27:40;;;;;;;7.90;6.13;;;;;;;27.49;50.57;100071.16;4473936;32;32995;-78
2023/08/16 02:30:07;;;;;;;8.05;5.90;;;;;;;27.75;49.75;100065.31;4480692;32;32264;-78
2023/08/16 02:32:36;;;;;;;7.87;5.95;;;;;;;27.44;50.36;100064.16;4472860;32;33700;-78
2023/08/16 02:35:04;;;;;;;7.90;6.20;;;;;;;27.57;50.07;100062.12;4473218;32;34057;-78
2023/08/16 02:37:31;;;;;;;8.50;6.37;;;;;;;27.64;49.78;100069.09;4479559;32;32830;-78
2023/08/16 02:39:59;;;;;;;7.90;5.90;;;;;;;27.79;49.22;100057.22;4471246;32;33139;-78
2023/08/16 02:42:26;;;;;;;7.30;5.90;;;;;;;27.51;49.91;100064.06;4482057;32;34347;-78
2023/08/16 02:44:54;;;;;;;10.20;6.10;;;;;;;27.42;50.24;100057.13;4478931;32;33356;-78
2023/08/16 02:47:22;;;;;;;8.45;6.18;;;;;;;27.17;50.98;100064.69;4467275;32;33467;-78
2023/08/16 02:49:50;;;;;;;11.40;6.80;;;;;;;27.57;50.05;100059.47;4483148;32;33776;-78
2023/08/16 02:52:17;;;;;;;9.77;6.32;;;;;;;27.90;49.33;100067.69;4474161;32;34353;-78
2023/08/16 02:54:45;;;;;;;10.25;6.43;;;;;;;27.56;49.92;100068.34;4482864;32;34048;-78
2023/08/16 02:57:13;;;;;;;9.57;6.53;;;;;;;27.73;49.79;100064.47;4481936;32;33116;-78
2023/08/16 02:59:46;;;;;;;10.02;6.30;;;;;;;27.71;49.96;100071.63;4478163;32;33713;-78
2023/08/16 03:02:14;;;;;;;9.45;6.10;;;;;;;27.33;50.85;100070.63;4477235;32;34077;-78
2023/08/16 03:04:43;;;;;;;10.02;6.55;;;;;;;27.18;51.21;100072.66;4479732;32;33319;-78
2023/08/16 03:07:11;;;;;;;9.98;6.55;;;;;;;27.11;51.74;100076.31;4475808;32;33334;-78
2023/08/16 03:09:39;;;;;;;8.70;5.95;;;;;;;27.60;50.55;100086.03;4482730;32;33699;-78
2023/08/16 03:12:07;;;;;;;9.48;6.18;;;;;;;27.52;50.79;100087.09;4480910;32;33776;-78
2023/08/16 03:14:35;;;;;;;8.33;6.13;;;;;;;27.46;50.84;100083.63;4481373;32;34453;-78
2023/08/16 03:17:03;;;;;;;8.57;5.93;;;;;;;27.36;50.82;100087.38;4482199;32;31774;-78
2023/08/16 03:19:31;;;;;;;11.98;6.60;;;;;;;27.48;50.33;100080.94;4482360;32;33333;-78
2023/08/16 03:21:58;;;;;;;8.60;6.30;;;;;;;27.82;49.66;100080.25;4482508;32;33876;-78
2023/08/16 03:24:26;;;;;;;9.98;6.93;;;;;;;27.19;51.13;100087.66;4478918;32;33605;-78
2023/08/16 03:26:55;;;;;;;8.98;6.43;;;;;;;26.74;52.71;100087.59;4479658;32;33948;-78
2023/08/16 03:29:22;;;;;;;9.93;6.45;;;;;;;26.40;53.83;100093.41;4475669;32;33605;-78
2023/08/16 03:31:50;;;;;;;10.68;6.80;;;;;;;26.25;54.35;100096.31;4481568;32;33822;-78
2023/08/16 03:34:17;;;;;;;8.65;6.22;;;;;;;26.53;53.19;100093.25;4479415;32;33934;-78
2023/08/16 03:36:46;;;;;;;9.57;6.55;;;;;;;26.38;53.93;100089.91;4479340;32;32598;-78
2023/08/16 03:39:14;;;;;;;10.95;6.40;;;;;;;26.44;53.81;100095.16;4477950;32;33532;-77
2023/08/16 03:41:43;;;;;;;9.00;6.93;;;;;;;26.42;53.81;100096.06;4479857;32;34583;-78
2023/08/16 03:44:11;;;;;;;8.32;6.22;;;;;;;27.42;50.80;100097.03;4478899;32;33851;-78
2023/08/16 03:46:40;;;;;;;7.93;6.80;;;;;;;27.47;50.62;100100.50;4479154;32;33002;-78
2023/08/16 03:49:08;;;;;;;8.68;6.45;;;;;;;27.36;51.25;100110.47;4482632;32;34493;-78
2023/08/16 03:51:35;;;;;;;12.73;6.75;;;;;;;27.78;50.10;100100.72;4474829;32;33757;-78
2023/08/16 03:54:03;;;;;;;10.40;6.95;;;;;;;27.78;50.03;100105.19;4472753;32;33684;-77
2023/08/16 03:56:31;;;;;;;9.23;6.80;;;;;;;27.18;51.82;100101.91;4478074;32;33219;-78
2023/08/16 03:58:58;;;;;;;11.00;6.32;;;;;;;26.77;53.13;100099.97;4481578;32;33046;-78
2023/08/16 04:01:26;;;;;;;11.60;6.40;;;;;;;27.10;52.29;100098.50;4453050;32;33389;-78
2023/08/16 04:03:54;;;;;;;9.63;6.78;;;;;;;26.99;52.37;100098.69;4475429;32;33736;-78
2023/08/16 04:06:21;;;;;;;9.50;6.60;;;;;;;27.44;51.44;100095.22;4481009;32;33424;-78
2023/08/16 04:08:49;;;;;;;11.18;6.47;;;;;;;27.10;52.29;100098.50;4475535;32;33655;-77
2023/08/16 04:11:16;;;;;;;9.88;6.65;;;;;;;27.36;51.75;100107.81;4482067;32;33527;-78
2023/08/16 04:13:44;;;;;;;8.90;6.40;;;;;;;27.74;50.49;100108.78;4480147;32;33367;-78
2023/08/16 04:16:11;;;;;;;9.70;6.60;;;;;;;27.67;50.66;100117.84;4481387;32;31751;-78
2023/08/16 04:18:39;;;;;;;9.70;6.27;;;;;;;26.96;52.64;100119.13;4481380;32;33819;-78
2023/08/16 04:21:06;;;;;;;8.95;6.28;;;;;;;27.57;50.88;100112.69;4477719;32;33512;-78
2023/08/16 04:23:34;;;;;;;8.60;6.18;;;;;;;27.41;51.43;100121.87;4479573;32;33558;-78
2023/08/16 04:26:02;;;;;;;9.45;6.57;;;;;;;27.04;52.53;100130.50;4481776;32;33762;-78
2023/08/16 04:28:31;;;;;;;11.23;6.93;;;;;;;27.75;50.65;100126.53;4476191;32;34498;-78
2023/08/16 04:31:00;;;;;;;12.07;6.60;;;;;;;27.43;51.27;100120.97;4474029;32;33791;-78
2023/08/16 04:33:27;;;;;;;8.90;6.80;;;;;;;27.42;51.33;100124.50;4478031;32;33257;-78
2023/08/16 04:35:56;;;;;;;10.13;6.45;;;;;;;27.52;51.04;100119.88;4463591;32;32917;-78
2023/08/16 04:38:24;;;;;;;8.30;6.50;;;;;;;27.29;51.76;100122.13;4478634;32;33708;-78
2023/08/16 04:40:52;;;;;;;11.10;6.28;;;;;;;27.76;50.60;100122.97;4483661;32;33731;-78
2023/08/16 04:43:20;;;;;;;9.18;6.68;;;;;;;27.59;50.74;100123.31;4483756;32;34433;-78
2023/08/16 04:45:47;;;;;;;10.65;6.53;;;;;;;27.09;52.22;100131.31;4479819;32;32788;-78
2023/08/16 04:48:15;;;;;;;8.93;6.28;;;;;;;27.63;50.77;100133.84;4483279;32;33610;-78
2023/08/16 04:50:44;;;;;;;9.82;6.28;;;;;;;27.98;50.01;100128.75;4481494;32;34565;-78
2023/08/16 04:53:11;;;;;;;9.67;6.63;;;;;;;27.85;50.54;100122.75;4480193;32;33529;-78
2023/08/16 04:55:39;;;;;;;9.73;6.55;;;;;;;27.51;51.27;100125.25;4473578;32;32064;-78
2023/08/16 04:58:07;;;;;;;10.63;6.50;;;;;;;27.65;51.19;100133.84;4472143;32;33726;-78
2023/08/16 05:00:34;;;;;;;10.85;6.78;;;;;;;27.67;51.12;100133.81;4475603;32;33515;-78
2023/08/16 05:03:03;;;;;;;8.07;6.10;;;;;;;27.72;51.42;100126.59;4480048;32;32886;-78
2023/08/16 05:05:30;;;;;;;10.43;6.35;;;;;;;27.35;52.46;100120.25;4477073;32;33828;-78
2023/08/16 05:07:58;;;;;;;10.20;6.60;;;;;;;27.66;51.53;100114.28;4475137;32;33920;-78
2023/08/16 05:10:26;;;;;;;7.60;6.50;;;;;;;28.11;50.19;100113.38;4482006;32;34046;-78
2023/08/16 05:12:53;;;;;;;9.60;6.28;;;;;;;28.16;49.97;100120.38;4474653;32;33637;-78
2023/08/16 05:15:21;;;;;;;10.02;6.30;;;;;;;27.89;50.52;100116.50;4465154;32;31696;-78
2023/08/16 05:17:48;;;;;;;8.75;6.03;;;;;;;27.89;50.41;100119.16;4470635;32;33681;-78
2023/08/16 05:20:16;;;;;;;9.13;6.18;;;;;;;27.70;51.12;100123.97;4477713;32;33955;-78
2023/08/16 05:22:43;;;;;;;9.38;6.40;;;;;;;27.59;51.54;100126.84;4470016;32;34390;-78
2023/08/16 05:25:11;;;;;;;9.63;6.37;;;;;;;27.70;51.28;100128.41;4478829;32;34166;-78
2023/08/16 05:27:39;;;;;;;8.95;6.32;;;;;;;27.82;50.78;100117.53;4471292;32;33603;-77
2023/08/16 05:30:07;;;;;;;8.65;6.50;;;;;;;28.03;50.33;100122.41;4468780;32;33799;-81
2023/08/16 05:32:35;;;;;;;10.23;6.50;;;;;;;27.78;51.13;100123.81;4481334;32;33491;-79
2023/08/16 05:35:03;;;;;;;8.60;6.15;;;;;;;27.74;51.09;100124.75;4478057;32;32550;-82
2023/08/16 05:37:31;;;;;;;11.02;6.75;;;;;;;27.90;50.93;100120.91;4479454;32;33431;-81
2023/08/16 05:39:58;;;;;;;9.18;6.40;;;;;;;27.87;50.99;100128.94;4474590;32;33188;-79
2023/08/16 05:42:28;;;;;;;10.43;6.72;;;;;;;27.91;50.93;100122.69;4478562;32;34437;-78
2023/08/16 05:44:57;;;;;;;9.20;6.95;;;;;;;28.02;50.55;100120.66;4462119;32;33196;-78
2023/08/16 05:47:25;;;;;;;9.40;6.32;;;;;;;28.22;50.13;100136.19;4478025;32;33895;-78
2023/08/16 05:49:53;;;;;;;8.85;6.70;;;;;;;28.25;49.93;100137.91;4472779;32;33586;-78
2023/08/16 05:52:20;;;;;;;12.13;6.47;;;;;;;28.37;49.49;100131.41;4469216;32;33293;-78
2023/08/16 05:54:48;;;;;;;9.82;6.30;;;;;;;28.25;49.64;100137.91;4476033;32;33381;-78
2023/08/16 05:57:16;;;;;;;8.90;6.57;;;;;;;28.46;49.12;100135.69;4478234;32;32784;-78
2023/08/16 05:59:45;;;;;;;10.90;6.50;;;;;;;28.30;49.40;100130.69;4478307;32;33534;-78
2023/08/16 06:02:12;;;;;;;11.23;6.57;;;;;;;28.74;48.14;100135.91;4477595;32;33283;-78
2023/08/16 06:04:40;;;;;;;8.93;6.40;;;;;;;28.77;47.96;100139.38;4477465;32;34116;-78
2023/08/16 06:07:08;;;;;;;9.27;6.50;;;;;;;28.65;47.19;100142.34;4480737;32;33917;-78
2023/08/16 06:09:35;;;;;;;11.95;7.12;;;;;;;28.91;47.02;100143.47;4481789;32;33979;-78
2023/08/16 06:12:04;;;;;;;9.70;7.20;;;;;;;29.07;47.28;100139.53;4475037;32;33867;-77
2023/08/16 06:14:31;;;;;;;9.37;6.90;;;;;;;29.48;47.09;100134.88;4481116;32;34028;-77
2023/08/16 06:16:59;;;;;;;9.98;7.05;;;;;;;29.28;47.63;100143.41;4480913;32;33946;-78
2023/08/16 06:19:27;;;;;;;10.30;7.10;;;;;;;29.22;48.29;100143.59;4474866;32;33676;-78
2023/08/16 06:21:54;;;;;;;10.77;7.55;;;;;;;29.41;48.38;100138.63;4471387;32;34118;-78
2023/08/16 06:24:21;;;;;;;10.45;7.12;;;;;;;29.16;49.30;100139.28;4474287;32;33850;-78
2023/08/16 06:26:49;;;;;;;11.10;7.50;;;;;;;29.04;49.77;100133.38;4480323;32;33444;-77
2023/08/16 06:29:17;;;;;;;10.55;7.22;;;;;;;29.21;49.50;100133.84;4473918;32;34479;-78
2023/08/16 06:31:48;;;;;;;11.65;6.95;;;;;;;29.39;49.31;100145.81;4474544;32;34379;-78
2023/08/16 06:34:16;;;;;;;9.87;6.63;;;;;;;29.65;49.13;100144.19;4472281;32;31920;-78
2023/08/16 06:36:46;;;;;;;9.07;7.15;;;;;;;29.98;48.36;100148.59;4460511;32;33760;-77
2023/08/16 06:39:14;;;;;;;10.05;6.82;;;;;;;29.80;49.30;100146.47;4456174;32;34031;-78
2023/08/16 06:41:41;;;;;;;10.07;7.50;;;;;;;30.03;49.23;100140.44;4477110;32;33950;-78
2023/08/16 06:44:09;;;;;;;10.35;7.25;;;;;;;29.95;48.63;100130.00;4478654;32;34200;-78
2023/08/16 06:46:36;;;;;;;10.73;6.62;;;;;;;30.52;47.70;100130.94;4475332;32;34097;-78
2023/08/16 06:49:04;;;;;;;11.40;7.37;;;;;;;30.72;47.02;100124.94;4470835;32;33627;-78
2023/08/16 06:51:32;;;;;;;12.52;6.78;;;;;;;30.58;47.40;100132.56;4472041;32;33490;-78
2023/08/16 06:53:59;;;;;;;11.95;7.05;;;;;;;30.51;47.29;100139.00;4480618;32;33918;-82
2023/08/16 06:56:27;;;;;;;13.38;7.80;;;;;;;30.82;46.92;100124.63;4478244;32;34547;-77
2023/08/16 06:58:55;;;;;;;12.10;7.30;;;;;;;30.92;46.92;100123.41;4475881;32;33812;-78
2023/08/16 07:01:22;;;;;;;9.48;7.30;;;;;;;31.21;45.51;100126.88;4474834;32;34626;-78
2023/08/16 07:03:50;;;;;;;10.67;7.40;;;;;;;31.26;45.26;100123.13;4477661;32;33277;-79
2023/08/16 07:06:19;;;;;;;10.80;7.35;;;;;;;31.01;46.06;100123.09;4481370;32;33704;-78
2023/08/16 07:08:46;;;;;;;11.40;7.43;;;;;;;31.30;45.35;100126.56;4482366;32;33615;-79
2023/08/16 07:11:14;;;;;;;11.57;7.18;;;;;;;31.43;44.77;100119.84;4463615;32;31741;-78
2023/08/16 07:13:42;;;;;;;9.25;7.45;;;;;;;31.27;45.02;100121.31;4481628;32;34159;-79
2023/08/16 07:16:09;;;;;;;12.90;8.10;;;;;;;31.39;44.67;100131.59;4482443;32;33610;-78
2023/08/16 07:18:37;;;;;;;10.27;7.57;;;;;;;31.48;44.20;100128.59;4479526;32;33797;-78
2023/08/16 07:21:04;;;;;;;11.60;7.25;;;;;;;31.32;44.77;100135.41;4483248;32;33491;-77
2023/08/16 07:23:32;;;;;;;9.37;7.10;;;;;;;31.62;44.41;100129.91;4482844;32;33936;-78
2023/08/16 07:26:00;;;;;;;11.10;7.80;;;;;;;31.62;43.93;100129.91;4475775;32;34439;-79
2023/08/16 07:28:27;;;;;;;13.60;7.83;;;;;;;31.60;43.59;100127.28;4482284;32;34264;-78
2023/08/16 07:30:55;;;;;;;11.55;7.80;;;;;;;31.29;44.97;100127.47;4482132;32;34613;-78
2023/08/16 07:33:23;;;;;;;12.05;7.35;;;;;;;31.39;44.59;100142.31;4482736;32;32994;-78
2023/08/16 07:35:51;;;;;;;10.77;7.60;;;;;;;31.58;44.33;100144.34;4482690;32;33739;-78
2023/08/16 07:38:18;;;;;;;9.85;7.62;;;;;;;31.96;43.20;100142.91;4472598;32;33844;-78
2023/08/16 07:40:47;;;;;;;11.57;7.68;;;;;;;31.91;43.33;100155.59;4480796;32;33897;-78
2023/08/16 07:43:15;;;;;;;9.45;7.72;;;;;;;31.69;43.76;100152.84;4474604;32;33280;-78
2023/08/16 07:45:43;;;;;;;12.10;8.10;;;;;;;31.52;43.96;100154.34;4481364;32;34136;-78
2023/08/16 07:48:10;;;;;;;10.93;7.87;;;;;;;31.98;43.32;100149.06;4476793;32;33440;-79
2023/08/16 07:50:38;;;;;;;11.40;7.63;;;;;;;31.78;43.73;100155.19;4482394;32;34554;-80
2023/08/16 07:53:06;;;;;;;13.35;7.45;;;;;;;31.48;44.39;100157.19;4478134;32;33379;-78
2023/08/16 07:55:33;;;;;;;11.25;7.80;;;;;;;31.36;45.11;100155.78;4477572;32;34030;-79
2023/08/16 07:58:01;;;;;;;12.00;7.75;;;;;;;31.31;45.45;100152.37;4475112;32;33661;-79
2023/08/16 08:00:29;;;;;;;11.07;8.00;;;;;;;31.32;45.79;100154.16;4473137;32;33181;-79
2023/08/16 08:02:57;;;;;;;11.30;8.07;;;;;;;31.57;44.85;100153.31;4470143;31;33367;-79
2023/08/16 08:05:28;;;;;;;11.20;8.20;;;;;;;31.70;44.16;100152.81;4476611;32;34830;-79
2023/08/16 08:07:56;;;;;;;11.95;8.18;;;;;;;31.58;44.31;100155.03;4480137;32;33772;-79
2023/08/16 08:10:24;;;;;;;10.52;8.10;;;;;;;31.48;44.60;100173.25;4473793;32;33443;-79
2023/08/16 08:12:51;;;;;;;10.47;8.53;;;;;;;31.32;45.58;100178.25;4483133;32;33065;-79
2023/08/16 08:15:19;;;;;;;11.48;7.97;;;;;;;31.09;46.74;100185.25;4481090;32;33552;-79
2023/08/16 08:17:47;;;;;;;12.53;8.20;;;;;;;31.15;47.21;100187.72;4478563;32;33730;-79
2023/08/16 08:20:15;;;;;;;11.12;8.80;;;;;;;31.48;46.47;100197.34;4483149;32;34335;-79
2023/08/16 08:22:44;;;;;;;13.02;8.77;;;;;;;31.65;44.06;100199.44;4483910;32;33381;-79
2023/08/16 08:25:11;;;;;;;12.07;8.80;;;;;;;31.80;44.52;100201.53;4484253;32;33788;-79
2023/08/16 08:27:39;;;;;;;14.02;8.68;;;;;;;31.59;44.44;100199.66;4481088;32;34505;-79
2023/08/16 08:30:07;;;;;;;12.73;8.57;;;;;;;31.16;46.34;100205.53;4483218;32;33628;-79
2023/08/16 08:32:35;;;;;;;11.27;8.40;;;;;;;31.26;45.42;100203.41;4487786;31;33473;-80
2023/08/16 08:35:04;;;;;;;12.57;8.75;;;;;;;31.85;44.37;100196.91;4484081;32;33663;-80
2023/08/16 08:37:32;;;;;;;12.30;8.02;;;;;;;31.42;45.73;100193.03;4467174;32;34074;-80
2023/08/16 08:40:00;;;;;;;12.55;8.93;;;;;;;31.60;45.21;100196.03;4483389;31;34225;-80
2023/08/16 08:42:29;;;;;;;10.90;8.50;;;;;;;31.51;45.35;100198.09;4465873;32;31907;-79
2023/08/16 08:44:59;;;;;;;10.45;8.45;;;;;;;31.60;45.04;100206.75;4465991;32;32777;-79
2023/08/16 08:47:29;;;;;;;13.35;8.32;;;;;;;31.84;44.95;100205.84;4481856;32;34158;-79
2023/08/16 08:49:57;;;;;;;10.75;7.90;;;;;;;32.21;44.28;100209.87;4471225;32;32671;-79
2023/08/16 08:52:25;;;;;;;11.30;8.82;;;;;;;31.78;45.34;100211.44;4480384;32;33025;-80
2023/08/16 08:54:53;;;;;;;12.68;8.60;;;;;;;32.44;43.01;100205.44;4476732;31;32375;-79
2023/08/16 08:57:21;;;;;;;12.73;8.60;;;;;;;31.87;44.37;100221.81;4457766;32;33510;-80
2023/08/16 08:59:49;;;;;;;12.43;8.38;;;;;;;31.73;45.27;100216.94;4477552;32;33582;-79
2023/08/16 09:02:17;;;;;;;14.70;9.40;;;;;;;31.53;45.98;100215.00;4458334;32;32809;-80
2023/08/16 09:04:47;;;;;;;13.55;9.00;;;;;;;31.08;46.42;100207.59;4472843;32;34403;-79
2023/08/16 09:07:17;;;;;;;10.80;8.20;;;;;;;31.50;45.22;100212.41;4464097;32;33735;-80
2023/08/16 09:09:46;;;;;;;12.73;8.53;;;;;;;31.51;45.89;100207.94;4458138;32;33630;-79
2023/08/16 09:12:14;;;;;;;14.50;8.95;;;;;;;31.80;45.01;100219.44;4464739;32;33459;-80
2023/08/16 09:14:42;;;;;;;11.38;8.38;;;;;;;31.90;44.97;100216.34;4478221;32;34235;-79
2023/08/16 09:17:10;;;;;;;16.98;9.35;;;;;;;31.71;44.98;100216.13;4478765;32;33704;-80
2023/08/16 09:19:44;;;;;;;12.70;8.43;;;;;;;32.08;44.81;100224.66;4474672;32;33425;-80
2023/08/16 09:22:12;;;;;;;14.48;9.40;;;;;;;32.77;43.91;100221.13;4473399;32;32696;-80
2023/08/16 09:24:42;;;;;;;13.73;8.82;;;;;;;32.85;42.64;100219.00;4477036;32;33601;-80
2023/08/16 09:27:10;;;;;;;11.85;8.90;;;;;;;33.09;42.51;100225.19;4475464;32;33341;-80
2023/08/16 09:29:39;;;;;;;14.07;8.50;;;;;;;33.43;42.94;100216.56;4462113;32;34736;-79
2023/08/16 09:32:10;;;;;;;10.70;8.20;;;;;;;33.96;40.64;100217.88;4477927;32;33325;-80
2023/08/16 09:34:41;;;;;;;13.20;9.45;;;;;;;33.89;40.56;100219.06;4475410;32;34356;-80
2023/08/16 09:37:21;;;;;;;12.13;9.18;;;;;;;34.19;38.90;100213.25;4472990;32;33112;-80
2023/08/16 09:39:58;;;;;;;13.10;9.23;;;;;;;34.86;38.63;100218.09;4479973;32;33737;-80
2023/08/16 09:42:32;;;;;;;10.65;8.15;;;;;;;35.07;36.05;100206.37;4473358;32;32764;-80
2023/08/16 09:45:00;;;;;;;11.00;7.95;;;;;;;35.14;37.00;100205.97;4482077;32;33073;-80
2023/08/16 09:47:31;;;;;;;12.30;8.80;;;;;;;35.38;36.99;100211.94;4477431;32;34033;-80
2023/08/16 09:50:05;;;;;;;13.18;7.75;;;;;;;35.88;34.92;100212.09;4476004;32;33288;-79
2023/08/16 09:52:34;;;;;;;10.57;8.88;;;;;;;36.07;35.28;100210.13;4452148;32;33086;-78
2023/08/16 09:55:03;;;;;;;11.80;7.95;;;;;;;36.21;32.89;100206.69;4461392;32;34142;-79
2023/08/16 09:57:31;;;;;;;14.43;9.00;;;;;;;36.36;33.06;100200.44;4450083;32;900865;-80
2023/08/16 09:59:58;;;;;;;14.45;9.45;;;;;;;36.22;33.59;100193.13;4480500;32;33545;-80
2023/08/16 10:02:26;;;;;;;12.85;8.52;;;;;;;36.20;33.95;100196.84;4441442;32;31805;-79
2023/08/16 10:04:57;;;;;;;14.05;8.93;;;;;;;36.16;34.33;100192.56;4483311;32;33793;-80
2023/08/16 10:07:26;;;;;;;14.48;8.85;;;;;;;35.77;34.40;100201.88;4464679;32;33860;-79
2023/08/16 10:09:54;;;;;;;11.27;9.02;;;;;;;35.87;34.50;100207.63;4473344;32;34094;-80
2023/08/16 10:12:23;;;;;;;10.00;7.53;;;;;;;35.68;35.45;100213.13;4475319;32;33433;-80
2023/08/16 10:14:51;;;;;;;11.45;8.63;;;;;;;35.43;36.00;100220.66;4476934;32;33742;-80
2023/08/16 10:17:19;;;;;;;13.13;9.50;;;;;;;36.36;34.52;100210.37;4479507;32;33856;-80
2023/08/16 10:19:48;;;;;;;12.27;9.00;;;;;;;36.06;34.31;100208.38;4461381;32;33331;-80
2023/08/16 10:22:23;;;;;;;10.95;8.23;;;;;;;35.86;34.90;100214.00;4467322;32;33094;-79
2023/08/16 10:25:12;;;;;;;11.73;8.18;;;;;;;36.10;33.80;100207.25;4475008;32;32935;-80
2023/08/16 10:27:45;;;;;;;13.57;9.05;;;;;;;35.97;35.18;100206.19;4480663;32;33684;-78
2023/08/16 10:30:24;;;;;;;13.70;8.52;;;;;;;36.31;33.15;100218.69;4481441;32;33247;-79
2023/08/16 10:32:58;;;;;;;10.73;8.10;;;;;;;36.59;33.38;100212.63;4482443;32;33201;-79
2023/08/16 10:35:27;;;;;;;12.90;10.10;;;;;;;36.66;34.06;100206.91;4478406;32;33861;-79
2023/08/16 10:37:57;;;;;;;10.52;7.95;;;;;;;36.35;32.51;100214.88;4475990;32;33531;-79
2023/08/16 10:40:24;;;;;;;9.20;7.85;;;;;;;35.85;34.74;100210.41;4482784;32;33317;-79
2023/08/16 10:42:54;;;;;;;9.77;7.70;;;;;;;36.13;33.70;100201.69;4482475;32;33316;-79
2023/08/16 10:45:26;;;;;;;10.90;7.80;;;;;;;36.37;33.53;100209.41;4477531;32;33750;-79
2023/08/16 10:48:16;;;;;;;11.02;8.68;;;;;;;36.06;33.42;100211.06;4476603;32;33008;-79
2023/08/16 10:50:44;;;;;;;10.32;8.35;;;;;;;36.52;32.00;100210.37;4478088;32;34535;-79
2023/08/16 10:53:12;;;;;;;8.63;7.30;;;;;;;35.91;33.40;100214.59;4475359;32;33017;-78
2023/08/16 10:55:41;;;;;;;12.50;7.43;;;;;;;36.18;33.64;100207.75;4480325;32;33397;-79
2023/08/16 10:58:18;;;;;;;11.77;8.20;;;;;;;36.56;33.51;100207.41;4472556;32;33701;-79
2023/08/16 11:00:59;;;;;;;11.98;8.05;;;;;;;36.47;33.37;100202.53;4480312;32;32814;-78
2023/08/16 11:03:35;;;;;;;10.98;8.07;;;;;;;36.64;34.17;100212.34;4474108;32;33177;-79
2023/08/16 11:06:08;;;;;;;12.20;8.60;;;;;;;36.57;33.07;100198.34;4475788;32;33301;-78
2023/08/16 11:08:43;;;;;;;12.55;8.45;;;;;;;36.95;32.50;100202.50;4476179;31;33540;-79
2023/08/16 11:11:12;;;;;;;10.80;7.90;;;;;;;37.28;30.98;100194.28;4476856;32;33423;-79
2023/08/16 11:13:41;;;;;;;12.63;7.90;;;;;;;37.15;32.35;100193.28;4451284;32;33171;-78
2023/08/16 11:16:10;;;;;;;9.70;7.55;;;;;;;37.56;31.48;100196.16;4474577;32;34393;-78
2023/08/16 11:18:41;;;;;;;11.23;7.13;;;;;;;37.76;32.05;100200.38;4472545;32;33502;-78
2023/08/16 11:21:16;;;;;;;10.98;7.60;;;;;;;37.70;31.18;100189.91;4459554;32;33505;-78
2023/08/16 11:23:44;;;;;;;12.68;7.78;;;;;;;37.76;30.47;100194.97;4460662;32;33312;-78
2023/08/16 11:26:12;;;;;;;10.82;6.95;;;;;;;37.71;31.16;100188.97;4476565;32;33906;-78
2023/08/16 11:28:40;;;;;;;11.33;7.33;;;;;;;38.11;31.44;100193.72;4482669;32;33813;-78